サンフランシスコ の空港の天気 - METARとTAF

サンフランシスコ国際空港 ( KSFO / SFO ) - アメリカ カリフォルニア州サンマテオ郡
飛行場実況気象(Metar)
観測時間12/09 20:56 PST (12/10 04:56 UTC)
風向・風速東北東 4m/s
視程10km以上
天気現象
全天の4割程度の雲 雲底高度 4570m
気温9.4℃
湿度90%
気圧1024.6hPa
METARKSFO 100456Z 07007KT 8SM SCT150 09/08 A3026 RMK AO2 SLP246 T00940078
過去の天気等 Google飛行場航空写真 Wunderground天気予報

過去48時間のMETAR

飛行場予報(TAF)
発表時間: 12/09 19:01 PST (12/10 03:01 UTC)
予報対象時間: 9日19時 PST ~ 10日22時 PST
風向・風速東北東 3m/s
視程10km以上
少しの雲 雲底高度 270m
全天の8割程度の雲 雲底高度 3660m
10日1時 PST から
風向・風速不定 2m/s
視程10km以上
天気現象周辺でしゅう雨
少しの雲 雲底高度 370m
全天を覆う雲 雲底高度 1520m
10日6時 PST から
風向・風速北東 3m/s
視程10km以上
天気現象周辺でしゅう雨
少しの雲 雲底高度 300m
全天を覆う雲 雲底高度 1220m
10日6時 PST ~ 10日10時 PST に一時的に
天気現象弱いしゅう雨
全天の8割程度の雲 雲底高度 760m
10日12時 PST から
風向・風速北西 5m/s
視程10km以上
天気現象周辺でしゅう雨
全天の4割程度の雲 雲底高度 760m
全天の8割程度の雲 雲底高度 1220m
全天を覆う雲 雲底高度 4570m
10日20時 PST から
風向・風速西北西 2m/s
視程10km以上
全天の4割程度の雲 雲底高度 1220m
全天の8割程度の雲 雲底高度 4570m
KSFO 100301Z 1003/1106 07006KT P6SM FEW009 BKN120
FM100900 VRB03KT P6SM VCSH FEW012 OVC050
FM101400 04006KT P6SM VCSH FEW010 OVC040
TEMPO 1014/1018 -SHRA BKN025
FM102000 32009KT P6SM VCSH SCT025 BKN040 OVC150
FM110400 29004KT P6SM SCT040 BKN150